Terminal Aerodrome Forecast
Issued by NWS

Home | Current Version | Previous Version | Text Only | Print | Product List | Glossary On
Versions: 1 2 3 4 5 6 7 8 9 10 11 12 13
351
FTUS45 KFGZ 230526
TAFPGA
TAF
KPGA 230526Z 2306/2406 VRB06KT P6SM SKC
     FM231800 29010G20KT P6SM BKN080
     FM240300 30006KT P6SM BKN080=

USA.gov is the U.S. government's official web portal to all federal, state and local government web resources and services.